createdAt,value
2018-09-13T00:00:24.726Z,5.60
2018-09-13T00:03:28.011Z,6.70
2018-09-13T00:06:31.227Z,6.13
2018-09-13T00:09:34.525Z,6.50
2018-09-13T00:12:37.730Z,6.50
2018-09-13T00:15:41.077Z,7.40
2018-09-13T00:18:44.402Z,6.73
2018-09-13T00:21:47.719Z,7.37
2018-09-13T00:24:51.022Z,7.17
2018-09-13T00:27:54.305Z,6.90
2018-09-13T00:30:57.936Z,7.70
2018-09-13T00:34:01.223Z,7.70
2018-09-13T00:37:04.521Z,8.13
2018-09-13T00:40:08.023Z,8.23
2018-09-13T00:43:11.306Z,7.93
2018-09-13T00:46:14.606Z,8.03
2018-09-13T00:49:17.924Z,8.50
2018-09-13T00:52:22.099Z,7.60
2018-09-13T00:55:25.396Z,8.37
2018-09-13T00:58:28.622Z,8.83
2018-09-13T01:01:31.922Z,8.80
2018-09-13T01:04:35.249Z,8.63
2018-09-13T01:07:38.502Z,8.93
2018-09-13T01:10:41.959Z,8.57
2018-09-13T01:13:45.275Z,8.97
2018-09-13T01:16:49.348Z,8.83
2018-09-13T01:19:52.766Z,9.33
2018-09-13T01:22:57.141Z,8.90
2018-09-13T01:26:01.462Z,8.93
2018-09-13T01:29:04.653Z,8.80
2018-09-13T01:32:07.970Z,9.03
2018-09-13T01:35:11.242Z,9.07
2018-09-13T01:38:14.535Z,9.30
2018-09-13T01:41:17.855Z,8.73
2018-09-13T01:44:22.205Z,8.17
2018-09-13T01:47:25.527Z,8.93
2018-09-13T01:50:28.957Z,8.93
2018-09-13T01:53:32.267Z,8.73
2018-09-13T01:56:35.476Z,7.93
2018-09-13T01:59:38.830Z,8.63
2018-09-13T02:02:42.191Z,8.20
2018-09-13T02:05:45.456Z,9.13
2018-09-13T02:08:48.858Z,9.03
2018-09-13T02:11:52.255Z,9.00
2018-09-13T02:14:55.580Z,9.70
2018-09-13T02:17:58.864Z,9.50
2018-09-13T02:21:02.182Z,8.10
2018-09-13T02:24:05.449Z,9.13
2018-09-13T02:27:08.771Z,8.70
2018-09-13T02:30:12.039Z,8.93
2018-09-13T02:33:15.659Z,8.53
2018-09-13T02:36:18.948Z,8.67
2018-09-13T02:39:22.955Z,8.90
2018-09-13T02:42:26.162Z,9.33
2018-09-13T02:45:29.459Z,9.30
2018-09-13T02:48:32.799Z,9.10
2018-09-13T02:51:36.021Z,9.40
2018-09-13T02:54:40.396Z,9.63
2018-09-13T02:57:43.685Z,9.73
2018-09-13T03:00:47.969Z,9.80
2018-09-13T03:03:52.328Z,9.73
2018-09-13T03:06:55.580Z,9.70
2018-09-13T03:09:59.930Z,9.73
2018-09-13T03:13:03.237Z,9.70
2018-09-13T03:16:06.540Z,9.60
2018-09-13T03:19:09.878Z,9.83
2018-09-13T03:22:13.222Z,9.17
2018-09-13T03:25:16.544Z,9.97
2018-09-13T03:28:20.772Z,9.87
2018-09-13T03:31:24.160Z,10.50
2018-09-13T03:34:27.431Z,10.80
2018-09-13T03:37:30.622Z,10.27
2018-09-13T03:40:33.930Z,10.10
2018-09-13T03:43:37.483Z,10.47
2018-09-13T03:46:40.830Z,10.03
2018-09-13T03:49:44.126Z,9.70
2018-09-13T03:52:47.424Z,10.27
2018-09-13T03:55:51.108Z,10.30
2018-09-13T03:58:54.516Z,10.10
2018-09-13T04:01:57.818Z,10.30
2018-09-13T04:05:01.154Z,10.47
2018-09-13T04:08:04.844Z,10.50
2018-09-13T04:11:08.127Z,10.30
2018-09-13T04:14:11.491Z,10.93
2018-09-13T04:17:14.926Z,10.30
2018-09-13T04:20:18.109Z,11.20
2018-09-13T04:23:22.504Z,10.50
2018-09-13T04:26:25.875Z,10.47
2018-09-13T04:29:29.188Z,10.53
2018-09-13T04:32:32.546Z,10.27
2018-09-13T04:35:36.003Z,10.67
2018-09-13T04:38:39.225Z,10.60
2018-09-13T04:41:42.565Z,9.97
2018-09-13T04:44:45.857Z,10.67
2018-09-13T04:47:49.115Z,10.47
2018-09-13T04:50:53.603Z,10.20
2018-09-13T04:53:56.937Z,10.00
2018-09-13T04:57:00.136Z,9.77
2018-09-13T05:00:04.483Z,9.90
2018-09-13T05:03:07.768Z,10.20
2018-09-13T05:06:11.090Z,9.57
2018-09-13T05:09:14.793Z,9.67
2018-09-13T05:12:17.927Z,10.07
2018-09-13T05:15:21.149Z,9.80
2018-09-13T05:18:24.479Z,9.60
2018-09-13T05:21:27.739Z,9.43
2018-09-13T05:24:31.068Z,9.57
2018-09-13T05:27:34.335Z,10.13
2018-09-13T05:30:37.610Z,9.60
2018-09-13T05:33:40.848Z,9.90
2018-09-13T05:36:44.148Z,10.77
2018-09-13T05:39:47.445Z,9.57
2018-09-13T05:42:51.132Z,9.90
2018-09-13T05:45:54.806Z,9.37
2018-09-13T05:48:58.038Z,9.30
2018-09-13T05:52:01.285Z,9.70
2018-09-13T05:55:04.560Z,9.10
2018-09-13T05:58:07.924Z,10.57
2018-09-13T06:01:11.218Z,9.40
2018-09-13T06:04:14.578Z,10.63
2018-09-13T06:07:17.825Z,10.63
2018-09-13T06:10:22.057Z,11.30
2018-09-13T06:13:25.282Z,10.83
2018-09-13T06:16:28.467Z,10.27
2018-09-13T06:19:31.824Z,10.20
2018-09-13T06:22:35.167Z,12.63
2018-09-13T06:25:38.409Z,10.97
2018-09-13T06:28:41.738Z,10.83
2018-09-13T06:31:45.004Z,11.40
2018-09-13T06:34:48.213Z,11.50
2018-09-13T06:37:52.284Z,10.67
2018-09-13T06:40:56.029Z,11.77
2018-09-13T06:43:59.218Z,10.97
2018-09-13T06:47:02.411Z,11.47
2018-09-13T06:50:06.064Z,11.07
2018-09-13T06:53:09.409Z,10.27
2018-09-13T06:56:12.723Z,11.63
2018-09-13T06:59:15.868Z,11.03
2018-09-13T07:02:19.165Z,11.13
2018-09-13T07:05:24.001Z,11.90
2018-09-13T07:08:27.263Z,11.73
2018-09-13T07:11:30.583Z,11.13
2018-09-13T07:14:33.884Z,10.30
2018-09-13T07:17:37.158Z,9.83
2018-09-13T07:20:41.447Z,10.70
2018-09-13T07:23:44.936Z,11.17
2018-09-13T07:26:48.059Z,11.30
2018-09-13T07:29:52.292Z,10.90
2018-09-13T07:32:55.583Z,11.30
2018-09-13T07:35:58.907Z,10.50
2018-09-13T07:39:02.162Z,10.90
2018-09-13T07:42:05.401Z,10.97
2018-09-13T07:45:08.635Z,10.73
2018-09-13T07:48:11.803Z,11.10
2018-09-13T07:51:15.069Z,11.27
2018-09-13T07:54:18.370Z,11.20
2018-09-13T07:57:23.096Z,10.90
2018-09-13T08:00:26.526Z,10.07
2018-09-13T08:03:29.818Z,10.53
2018-09-13T08:06:33.106Z,9.80
2018-09-13T08:09:36.442Z,10.97
2018-09-13T08:12:40.633Z,10.17
2018-09-13T08:15:44.036Z,10.53
2018-09-13T08:18:47.292Z,10.57
2018-09-13T08:21:51.295Z,10.07
2018-09-13T08:24:54.373Z,10.33
2018-09-13T08:27:57.853Z,10.83
2018-09-13T08:31:01.133Z,10.17
2018-09-13T08:34:04.413Z,10.20
2018-09-13T08:37:07.714Z,9.53
2018-09-13T08:40:10.992Z,9.43
2018-09-13T08:43:14.207Z,10.00
2018-09-13T08:46:20.590Z,10.13
2018-09-13T08:49:23.919Z,9.63
2018-09-13T08:52:27.307Z,10.17
2018-09-13T08:55:30.923Z,11.23
2018-09-13T08:58:34.142Z,11.17
2018-09-13T09:01:37.384Z,11.13
2018-09-13T09:04:41.300Z,9.60
2018-09-13T09:07:44.551Z,9.80
2018-09-13T09:10:47.870Z,10.20
2018-09-13T09:13:51.729Z,10.80
2018-09-13T09:16:55.047Z,10.13
2018-09-13T09:19:58.686Z,9.93
2018-09-13T09:23:01.959Z,9.80
2018-09-13T09:26:05.250Z,9.93
2018-09-13T09:29:09.630Z,10.17
2018-09-13T09:32:12.917Z,10.40
2018-09-13T09:35:16.190Z,10.10
2018-09-13T09:38:19.499Z,9.77
2018-09-13T09:41:22.980Z,10.40
2018-09-13T09:44:26.165Z,9.97
2018-09-13T09:47:29.383Z,10.00
2018-09-13T09:50:32.694Z,10.10
2018-09-13T09:53:35.828Z,10.20
2018-09-13T09:56:39.227Z,9.50
2018-09-13T09:59:42.545Z,10.30
2018-09-13T10:02:46.788Z,8.53
2018-09-13T10:05:50.489Z,8.23
2018-09-13T10:08:53.775Z,8.30
2018-09-13T10:11:56.997Z,8.37
2018-09-13T10:15:05.652Z,7.80
2018-09-13T10:18:14.275Z,8.50
2018-09-13T10:21:22.944Z,7.23
2018-09-13T10:24:31.651Z,8.27
2018-09-13T10:27:40.123Z,8.87
2018-09-13T10:30:48.926Z,8.70
2018-09-13T10:33:58.622Z,8.60
2018-09-13T10:37:07.247Z,8.30
2018-09-13T10:40:16.020Z,7.33
2018-09-13T10:43:24.714Z,8.87
2018-09-13T10:46:30.631Z,8.33
2018-09-13T10:49:39.191Z,8.80
2018-09-13T10:52:46.579Z,8.57
2018-09-13T10:55:50.475Z,7.70
2018-09-13T10:58:53.848Z,7.40
2018-09-13T11:01:57.125Z,7.27
2018-09-13T11:05:01.342Z,8.40
2018-09-13T11:08:04.643Z,8.20
2018-09-13T11:11:08.037Z,8.83
2018-09-13T11:14:15.411Z,7.33
2018-09-13T11:17:18.982Z,8.40
2018-09-13T11:20:23.661Z,7.77
2018-09-13T11:23:26.979Z,7.37
2018-09-13T11:26:30.313Z,7.33
2018-09-13T11:29:33.562Z,6.30
2018-09-13T11:32:37.890Z,6.60
2018-09-13T11:35:41.622Z,6.67
2018-09-13T11:38:45.036Z,6.90
2018-09-13T11:41:48.434Z,7.03
2018-09-13T11:44:52.564Z,6.97
2018-09-13T11:47:55.928Z,7.30
2018-09-13T11:50:59.199Z,6.47
2018-09-13T11:54:02.655Z,6.57
2018-09-13T11:57:05.863Z,7.70
2018-09-13T12:00:09.290Z,7.10
2018-09-13T12:03:13.647Z,7.37
2018-09-13T12:06:16.915Z,6.47
2018-09-13T12:09:20.604Z,6.70
2018-09-13T12:12:23.848Z,7.70
2018-09-13T12:15:27.193Z,7.07
2018-09-13T12:18:30.597Z,7.23
2018-09-13T12:21:33.892Z,6.80
2018-09-13T12:24:37.121Z,6.67
2018-09-13T12:27:40.400Z,7.20
2018-09-13T12:30:43.688Z,7.47
2018-09-13T12:33:47.121Z,6.93
2018-09-13T12:36:50.608Z,7.67
2018-09-13T12:39:53.941Z,7.27
2018-09-13T12:42:57.333Z,5.93
2018-09-13T12:46:00.899Z,6.80
2018-09-13T12:49:04.474Z,5.97
2018-09-13T12:52:07.753Z,6.57
2018-09-13T12:55:11.050Z,6.40
2018-09-13T12:58:14.322Z,6.87
2018-09-13T13:01:17.580Z,7.03
2018-09-13T13:04:21.598Z,6.27
2018-09-13T13:07:25.775Z,6.37
2018-09-13T13:10:29.057Z,6.00
2018-09-13T13:13:32.308Z,7.37
2018-09-13T13:16:35.760Z,7.00
2018-09-13T13:19:38.884Z,8.03
2018-09-13T13:22:43.373Z,7.27
2018-09-13T13:25:46.630Z,8.17
2018-09-13T13:28:50.796Z,6.83
2018-09-13T13:31:54.086Z,7.27
2018-09-13T13:34:57.318Z,7.50
2018-09-13T13:38:00.589Z,7.93
2018-09-13T13:41:03.997Z,7.60
2018-09-13T13:44:07.392Z,7.30
2018-09-13T13:47:10.541Z,7.60
2018-09-13T13:50:13.717Z,7.77
2018-09-13T13:53:17.076Z,8.17
2018-09-13T13:56:20.774Z,7.67
2018-09-13T13:59:24.005Z,8.17
2018-09-13T14:02:27.464Z,8.03
2018-09-13T14:05:31.748Z,7.90
2018-09-13T14:08:34.963Z,7.37
2018-09-13T14:11:38.263Z,6.87
2018-09-13T14:14:41.580Z,7.10
2018-09-13T14:17:44.955Z,7.63
2018-09-13T14:20:48.330Z,6.97
2018-09-13T14:23:51.579Z,7.37
2018-09-13T14:26:55.000Z,6.53
2018-09-13T14:29:58.384Z,7.60
2018-09-13T14:33:01.581Z,6.33
2018-09-13T14:36:04.846Z,6.17
2018-09-13T14:39:09.701Z,5.90
2018-09-13T14:42:13.001Z,5.93
2018-09-13T14:45:16.257Z,5.60
2018-09-13T14:48:19.600Z,6.00
2018-09-13T14:51:24.033Z,6.13
2018-09-13T14:54:27.398Z,5.90
2018-09-13T14:57:31.461Z,5.70
2018-09-13T15:00:34.893Z,6.40
2018-09-13T15:03:38.207Z,5.23
2018-09-13T15:06:41.524Z,5.40
2018-09-13T15:09:44.832Z,6.33
2018-09-13T15:12:48.073Z,5.63
2018-09-13T15:15:52.415Z,5.80
2018-09-13T15:18:55.836Z,5.63
2018-09-13T15:22:02.633Z,5.50
2018-09-13T15:25:06.071Z,6.10
2018-09-13T15:28:10.180Z,5.87
2018-09-13T15:31:13.512Z,5.67
2018-09-13T15:34:16.710Z,6.30
2018-09-13T15:37:20.890Z,6.50
2018-09-13T15:40:24.150Z,6.13
2018-09-13T15:43:27.448Z,6.57
2018-09-13T15:46:30.847Z,5.43
2018-09-13T15:49:34.099Z,6.00
2018-09-13T15:52:37.389Z,5.67
2018-09-13T15:55:40.611Z,5.60
2018-09-13T15:58:43.929Z,5.67
2018-09-13T16:01:47.267Z,5.40
2018-09-13T16:04:51.662Z,6.13
2018-09-13T16:07:54.915Z,6.17
2018-09-13T16:10:58.235Z,5.10
2018-09-13T16:14:01.425Z,6.03
2018-09-13T16:17:04.793Z,5.20
2018-09-13T16:20:08.153Z,6.00
2018-09-13T16:23:11.411Z,6.47
2018-09-13T16:26:14.754Z,6.30
2018-09-13T16:29:18.037Z,5.93
2018-09-13T16:32:23.273Z,6.07
2018-09-13T16:35:26.465Z,5.83
2018-09-13T16:38:35.022Z,5.60
2018-09-13T16:41:43.763Z,5.90
2018-09-13T16:44:47.844Z,6.20
2018-09-13T16:47:58.618Z,6.43
2018-09-13T16:51:02.014Z,5.67
2018-09-13T16:54:05.719Z,5.67
2018-09-13T16:57:10.159Z,6.13
2018-09-13T17:00:13.575Z,6.20
2018-09-13T17:03:16.791Z,6.60
2018-09-13T17:06:20.039Z,5.80
2018-09-13T17:09:24.141Z,6.40
2018-09-13T17:12:27.395Z,7.23
2018-09-13T17:15:30.716Z,6.33
2018-09-13T17:18:34.166Z,6.47
2018-09-13T17:21:37.547Z,6.37
2018-09-13T17:24:40.935Z,6.17
2018-09-13T17:27:44.242Z,6.43
2018-09-13T17:30:47.506Z,8.57
2018-09-13T17:33:51.820Z,6.27
2018-09-13T17:36:55.033Z,6.60
2018-09-13T17:39:58.302Z,7.80
2018-09-13T17:43:01.624Z,7.13
2018-09-13T17:46:04.927Z,7.63
2018-09-13T17:49:08.199Z,7.40
2018-09-13T17:52:11.419Z,7.90
2018-09-13T17:55:14.734Z,7.33
2018-09-13T17:58:18.033Z,8.07
2018-09-13T18:01:21.816Z,8.80
2018-09-13T18:04:25.113Z,7.73
2018-09-13T18:07:28.480Z,7.57
2018-09-13T18:10:31.688Z,8.20
2018-09-13T18:13:35.346Z,7.93
2018-09-13T18:16:38.685Z,8.55
2018-09-13T18:19:41.881Z,8.27
2018-09-13T18:22:45.204Z,8.63
2018-09-13T18:25:48.496Z,8.73
2018-09-13T18:28:52.537Z,8.63
2018-09-13T18:31:55.815Z,9.00
2018-09-13T18:35:00.157Z,8.90
2018-09-13T18:38:03.556Z,9.07
2018-09-13T18:41:06.873Z,9.17
2018-09-13T18:44:10.160Z,9.73
2018-09-13T18:47:13.645Z,10.23
2018-09-13T18:50:16.966Z,9.40
2018-09-13T18:53:20.793Z,9.60
2018-09-13T18:56:24.146Z,9.50
2018-09-13T18:59:27.468Z,9.80
2018-09-13T19:02:30.771Z,9.60
2018-09-13T19:05:34.075Z,9.77
2018-09-13T19:08:37.405Z,9.80
2018-09-13T19:11:40.697Z,9.77
2018-09-13T19:14:49.028Z,9.77
2018-09-13T19:17:53.529Z,10.87
2018-09-13T19:20:57.763Z,11.00
2018-09-13T19:24:01.192Z,11.13
2018-09-13T19:27:04.522Z,11.53
2018-09-13T19:30:07.795Z,10.80
2018-09-13T19:33:11.095Z,11.33
2018-09-13T19:36:14.383Z,12.23
2018-09-13T19:39:17.579Z,11.60
2018-09-13T19:42:21.391Z,11.67
2018-09-13T19:45:24.839Z,11.60
2018-09-13T19:48:28.045Z,11.00
2018-09-13T19:51:31.441Z,10.80
2018-09-13T19:54:35.349Z,10.20
2018-09-13T19:57:38.599Z,10.30
2018-09-13T20:00:41.916Z,10.13
2018-09-13T20:03:45.219Z,9.70
2018-09-13T20:06:48.504Z,10.20
2018-09-13T20:09:52.703Z,9.87
2018-09-13T20:12:55.891Z,10.10
2018-09-13T20:15:59.104Z,10.20
2018-09-13T20:19:02.393Z,9.60
2018-09-13T20:22:05.735Z,10.03
2018-09-13T20:25:08.944Z,10.10
2018-09-13T20:28:12.156Z,9.70
2018-09-13T20:31:15.452Z,10.97
2018-09-13T20:34:19.055Z,11.10
2018-09-13T20:37:23.311Z,10.67
2018-09-13T20:40:26.768Z,9.27
2018-09-13T20:43:30.076Z,10.40
2018-09-13T20:46:33.280Z,9.23
2018-09-13T20:49:36.639Z,10.57
2018-09-13T20:52:39.894Z,10.07
2018-09-13T20:55:43.194Z,9.77
2018-09-13T20:58:47.196Z,10.07
2018-09-13T21:01:51.041Z,10.00
2018-09-13T21:04:54.347Z,10.50
2018-09-13T21:07:57.733Z,10.30
2018-09-13T21:11:01.018Z,11.03
2018-09-13T21:14:04.298Z,11.23
2018-09-13T21:17:07.773Z,11.33
2018-09-13T21:20:11.083Z,10.73
2018-09-13T21:23:14.289Z,10.70
2018-09-13T21:26:17.609Z,11.30
2018-09-13T21:29:22.455Z,11.07
2018-09-13T21:32:26.267Z,11.47
2018-09-13T21:35:29.571Z,10.90
2018-09-13T21:38:32.971Z,11.47
2018-09-13T21:41:36.215Z,11.23
2018-09-13T21:44:39.612Z,12.17
2018-09-13T21:47:42.930Z,11.57
2018-09-13T21:50:46.251Z,10.30
2018-09-13T21:53:49.512Z,11.27
2018-09-13T21:56:53.860Z,11.17
2018-09-13T21:59:57.133Z,11.53
2018-09-13T22:03:00.502Z,10.67
2018-09-13T22:06:03.835Z,11.50
2018-09-13T22:09:09.712Z,11.90
2018-09-13T22:12:13.436Z,13.23
2018-09-13T22:15:16.682Z,13.47
2018-09-13T22:18:19.888Z,14.20
2018-09-13T22:21:24.491Z,13.93
2018-09-13T22:24:27.940Z,13.63
2018-09-13T22:27:31.233Z,14.50
2018-09-13T22:30:34.588Z,13.97
2018-09-13T22:33:38.064Z,15.07
2018-09-13T22:36:41.406Z,15.17
2018-09-13T22:39:45.059Z,14.47
2018-09-13T22:42:49.370Z,14.40
2018-09-13T22:45:53.405Z,15.90
2018-09-13T22:48:56.838Z,15.60
2018-09-13T22:52:00.064Z,15.43
2018-09-13T22:55:03.467Z,15.43
2018-09-13T22:58:06.749Z,15.47
2018-09-13T23:01:10.067Z,16.50
2018-09-13T23:04:13.359Z,15.83
2018-09-13T23:07:16.703Z,16.33
2018-09-13T23:10:19.936Z,15.60
2018-09-13T23:13:23.978Z,15.43
2018-09-13T23:16:27.267Z,15.30
2018-09-13T23:19:30.547Z,16.13
2018-09-13T23:22:33.878Z,15.87
2018-09-13T23:25:37.159Z,15.43
2018-09-13T23:28:40.463Z,14.37
2018-09-13T23:31:44.168Z,15.10
2018-09-13T23:34:47.482Z,13.77
2018-09-13T23:37:51.191Z,15.33
2018-09-13T23:40:54.828Z,14.67
2018-09-13T23:43:58.170Z,15.27
2018-09-13T23:47:01.469Z,15.17
2018-09-13T23:50:04.835Z,14.97
2018-09-13T23:53:08.206Z,13.67
2018-09-13T23:56:11.449Z,12.80
2018-09-13T23:59:14.752Z,12.77
